createdAt,value
2022-10-22T00:00:14.186Z,8.30
2022-10-22T00:02:43.146Z,8.39
2022-10-22T00:05:12.328Z,8.35
2022-10-22T00:07:39.695Z,8.15
2022-10-22T00:10:07.339Z,8.28
2022-10-22T00:12:35.118Z,8.54
2022-10-22T00:15:04.719Z,8.49
2022-10-22T00:17:31.654Z,8.41
2022-10-22T00:19:59.657Z,8.46
2022-10-22T00:22:28.624Z,8.52
2022-10-22T00:24:56.522Z,8.19
2022-10-22T00:27:23.555Z,7.95
2022-10-22T00:29:51.250Z,7.99
2022-10-22T00:32:18.319Z,7.70
2022-10-22T00:34:45.309Z,7.46
2022-10-22T00:37:12.265Z,7.34
2022-10-22T00:39:40.213Z,7.56
2022-10-22T00:42:07.247Z,7.64
2022-10-22T00:45:03.281Z,7.71
2022-10-22T00:47:57.081Z,7.39
2022-10-22T00:50:31.743Z,7.13
2022-10-22T00:52:59.160Z,7.08
2022-10-22T00:55:28.927Z,7.11
2022-10-22T00:57:58.045Z,7.27
2022-10-22T01:00:25.872Z,7.56
2022-10-22T01:02:55.839Z,7.52
2022-10-22T01:05:29.695Z,7.49
2022-10-22T01:07:58.223Z,7.20
2022-10-22T01:10:46.255Z,7.25
2022-10-22T01:13:43.907Z,7.21
2022-10-22T01:16:19.907Z,7.40
2022-10-22T01:18:55.589Z,7.26
2022-10-22T01:21:44.694Z,7.41
2022-10-22T01:24:54.870Z,7.37
2022-10-22T01:27:36.916Z,7.12
2022-10-22T01:30:09.897Z,7.08
2022-10-22T01:33:00.904Z,7.15
2022-10-22T01:35:37.302Z,7.17
2022-10-22T01:38:11.138Z,6.91
2022-10-22T01:40:40.276Z,6.97
2022-10-22T01:43:09.670Z,7.04
2022-10-22T01:45:58.732Z,6.76
2022-10-22T01:48:52.998Z,6.97
2022-10-22T01:51:38.533Z,6.76
2022-10-22T01:54:14.523Z,6.49
2022-10-22T01:56:58.928Z,6.56
2022-10-22T01:59:42.157Z,6.63
2022-10-22T02:02:34.229Z,6.62
2022-10-22T02:05:10.351Z,6.70
2022-10-22T02:07:43.954Z,6.78
2022-10-22T02:10:11.247Z,6.88
2022-10-22T02:12:41.277Z,7.11
2022-10-22T02:15:12.281Z,7.12
2022-10-22T02:17:42.749Z,6.93
2022-10-22T02:20:26.279Z,7.17
2022-10-22T02:22:53.586Z,7.07
2022-10-22T02:25:24.753Z,7.07
2022-10-22T02:28:13.187Z,6.99
2022-10-22T02:30:44.635Z,7.15
2022-10-22T02:33:23.420Z,7.23
2022-10-22T02:35:52.549Z,7.29
2022-10-22T02:38:21.885Z,7.37
2022-10-22T02:40:49.006Z,7.41
2022-10-22T02:43:15.908Z,7.37
2022-10-22T02:45:43.087Z,7.46
2022-10-22T02:48:12.327Z,7.52
2022-10-22T02:50:39.283Z,7.62
2022-10-22T02:53:06.233Z,7.63
2022-10-22T02:55:33.228Z,7.61
2022-10-22T02:58:01.114Z,7.60
2022-10-22T03:00:30.168Z,7.83
2022-10-22T03:02:58.238Z,7.92
2022-10-22T03:05:25.088Z,7.87
2022-10-22T03:07:52.053Z,7.87
2022-10-22T03:10:21.016Z,7.91
2022-10-22T03:12:48.591Z,7.90
2022-10-22T03:15:16.570Z,7.86
2022-10-22T03:17:43.671Z,7.78
2022-10-22T03:20:10.717Z,7.83
2022-10-22T03:22:41.520Z,7.93
2022-10-22T03:25:14.121Z,7.94
2022-10-22T03:27:42.387Z,7.98
2022-10-22T03:30:10.521Z,8.03
2022-10-22T03:32:37.424Z,8.09
2022-10-22T03:35:05.863Z,8.02
2022-10-22T03:37:34.178Z,8.02
2022-10-22T03:40:03.862Z,8.00
2022-10-22T03:42:32.871Z,7.99
2022-10-22T03:44:59.919Z,7.97
2022-10-22T03:47:26.907Z,7.98
2022-10-22T03:49:53.870Z,8.10
2022-10-22T03:52:20.830Z,8.11
2022-10-22T03:54:48.732Z,8.03
2022-10-22T03:57:16.725Z,8.10
2022-10-22T03:59:46.389Z,8.03
2022-10-22T04:02:14.491Z,8.11
2022-10-22T04:04:41.547Z,8.12
2022-10-22T04:07:08.726Z,8.08
2022-10-22T04:09:37.191Z,8.14
2022-10-22T04:12:06.745Z,8.12
2022-10-22T04:14:34.789Z,8.12
2022-10-22T04:17:02.972Z,8.08
2022-10-22T04:19:30.923Z,8.07
2022-10-22T04:22:01.559Z,7.88
2022-10-22T04:24:30.190Z,8.05
2022-10-22T04:26:58.430Z,8.05
2022-10-22T04:29:25.464Z,8.05
2022-10-22T04:31:52.600Z,8.05
2022-10-22T04:34:19.603Z,8.03
2022-10-22T04:36:47.891Z,8.04
2022-10-22T04:39:15.934Z,8.00
2022-10-22T04:41:42.883Z,8.01
2022-10-22T04:44:12.391Z,7.97
2022-10-22T04:46:44.527Z,8.00
2022-10-22T04:49:11.829Z,8.03
2022-10-22T04:51:39.822Z,8.03
2022-10-22T04:54:06.837Z,8.08
2022-10-22T04:56:33.783Z,8.04
2022-10-22T04:59:05.682Z,8.06
2022-10-22T05:01:39.993Z,8.04
2022-10-22T05:04:12.964Z,8.18
2022-10-22T05:06:40.212Z,8.16
2022-10-22T05:09:13.280Z,8.16
2022-10-22T05:11:42.244Z,8.19
2022-10-22T05:14:10.729Z,8.19
2022-10-22T05:16:40.930Z,8.27
2022-10-22T05:19:08.572Z,8.09
2022-10-22T05:21:38.036Z,8.29
2022-10-22T05:24:05.303Z,8.22
2022-10-22T05:26:33.294Z,8.17
2022-10-22T05:29:01.192Z,8.16
2022-10-22T05:31:31.103Z,8.41
2022-10-22T05:33:58.276Z,8.48
2022-10-22T05:36:25.309Z,8.36
2022-10-22T05:38:52.609Z,8.33
2022-10-22T05:41:23.760Z,8.25
2022-10-22T05:43:50.737Z,8.25
2022-10-22T05:46:22.754Z,8.36
2022-10-22T05:48:55.333Z,8.31
2022-10-22T05:51:22.952Z,8.45
2022-10-22T05:53:55.154Z,8.42
2022-10-22T05:56:22.874Z,8.38
2022-10-22T05:58:50.232Z,8.30
2022-10-22T06:01:20.133Z,8.28
2022-10-22T06:03:48.938Z,8.32
2022-10-22T06:06:25.694Z,8.33
2022-10-22T06:08:54.963Z,8.38
2022-10-22T06:11:23.418Z,8.51
2022-10-22T06:13:51.242Z,8.65
2022-10-22T06:16:18.463Z,8.62
2022-10-22T06:18:45.458Z,8.85
2022-10-22T06:21:15.213Z,8.98
2022-10-22T06:23:44.545Z,9.05
2022-10-22T06:26:11.725Z,9.19
2022-10-22T06:28:39.800Z,9.24
2022-10-22T06:31:07.206Z,9.48
2022-10-22T06:33:35.108Z,9.57
2022-10-22T06:36:10.115Z,9.83
2022-10-22T06:38:37.119Z,9.89
2022-10-22T06:41:10.483Z,9.94
2022-10-22T06:43:37.425Z,10.10
2022-10-22T06:46:09.903Z,10.09
2022-10-22T06:48:38.253Z,10.13
2022-10-22T06:51:07.976Z,10.20
2022-10-22T06:53:36.272Z,10.26
2022-10-22T06:56:23.497Z,10.43
2022-10-22T06:58:52.405Z,10.40
2022-10-22T07:01:24.354Z,10.44
2022-10-22T07:03:52.789Z,10.36
2022-10-22T07:06:20.867Z,10.47
2022-10-22T07:08:47.814Z,10.68
2022-10-22T07:11:18.060Z,10.73
2022-10-22T07:13:45.714Z,10.66
2022-10-22T07:16:13.794Z,10.62
2022-10-22T07:18:41.795Z,10.54
2022-10-22T07:21:09.874Z,10.56
2022-10-22T07:23:37.239Z,10.65
2022-10-22T07:26:07.411Z,10.68
2022-10-22T07:28:36.759Z,10.71
2022-10-22T07:31:03.849Z,10.73
2022-10-22T07:33:30.767Z,10.68
2022-10-22T07:36:00.158Z,10.80
2022-10-22T07:38:27.596Z,10.84
2022-10-22T07:40:54.854Z,10.95
2022-10-22T07:43:22.475Z,10.92
2022-10-22T07:45:49.396Z,10.98
2022-10-22T07:48:16.877Z,11.04
2022-10-22T07:53:11.604Z,11.00
2022-10-22T07:55:38.516Z,10.94
2022-10-22T07:58:05.441Z,10.95
2022-10-22T08:00:32.350Z,11.00
2022-10-22T08:02:59.287Z,10.91
2022-10-22T08:05:26.366Z,10.97
2022-10-22T08:07:53.317Z,10.96
2022-10-22T08:10:21.303Z,11.08
2022-10-22T08:12:48.256Z,11.07
2022-10-22T08:15:16.214Z,11.07
2022-10-22T08:17:43.633Z,11.14
2022-10-22T08:20:11.230Z,11.19
2022-10-22T08:22:38.156Z,11.32
2022-10-22T08:25:06.267Z,11.41
2022-10-22T08:27:33.229Z,11.50
2022-10-22T08:30:00.099Z,11.53
2022-10-22T08:34:58.811Z,11.55
2022-10-22T08:37:26.203Z,11.61
2022-10-22T08:39:53.218Z,11.75
2022-10-22T08:42:41.909Z,11.77
2022-10-22T08:45:13.700Z,11.73
2022-10-22T08:47:48.365Z,11.68
2022-10-22T08:50:20.049Z,11.59
2022-10-22T08:52:52.572Z,11.66
2022-10-22T08:55:23.687Z,11.68
2022-10-22T08:57:56.402Z,11.75
2022-10-22T09:00:40.555Z,11.74
2022-10-22T09:03:29.295Z,11.73
2022-10-22T09:05:59.371Z,11.76
2022-10-22T09:08:26.473Z,11.79
2022-10-22T09:11:03.725Z,11.87
2022-10-22T09:13:31.113Z,11.82
2022-10-22T09:16:14.458Z,11.79
2022-10-22T09:18:53.965Z,11.90
2022-10-22T09:21:52.321Z,11.92
2022-10-22T09:24:49.514Z,11.87
2022-10-22T09:27:18.724Z,11.87
2022-10-22T09:29:47.830Z,11.87
2022-10-22T09:32:16.274Z,11.98
2022-10-22T09:34:50.032Z,11.99
2022-10-22T09:37:18.146Z,12.10
2022-10-22T09:39:51.579Z,12.02
2022-10-22T09:42:21.044Z,12.01
2022-10-22T09:44:58.622Z,12.02
2022-10-22T09:50:55.480Z,12.20
2022-10-22T09:53:27.274Z,12.26
2022-10-22T09:55:59.931Z,12.33
2022-10-22T09:58:28.013Z,12.39
2022-10-22T10:00:58.013Z,12.49
2022-10-22T10:03:33.640Z,12.58
2022-10-22T10:06:05.924Z,12.59
2022-10-22T10:08:33.482Z,12.72
2022-10-22T10:11:06.949Z,12.85
2022-10-22T10:14:08.558Z,12.96
2022-10-22T10:16:50.622Z,12.96
2022-10-22T10:19:26.136Z,13.01
2022-10-22T10:22:16.125Z,13.09
2022-10-22T10:25:03.490Z,13.15
2022-10-22T10:27:37.344Z,13.15
2022-10-22T10:30:10.235Z,13.19
2022-10-22T10:32:53.215Z,13.26
2022-10-22T10:35:32.489Z,13.28
2022-10-22T10:38:35.040Z,13.29
2022-10-22T10:41:10.947Z,13.36
2022-10-22T10:44:04.468Z,13.37
2022-10-22T10:46:40.850Z,13.38
2022-10-22T10:49:19.087Z,13.47
2022-10-22T10:52:02.462Z,13.49
2022-10-22T10:54:54.820Z,13.56
2022-10-22T10:57:49.331Z,13.75
2022-10-22T11:00:20.337Z,13.81
2022-10-22T11:03:09.063Z,13.83
2022-10-22T11:05:56.073Z,13.91
2022-10-22T11:08:34.576Z,13.80
2022-10-22T11:11:33.384Z,13.67
2022-10-22T11:14:25.330Z,13.70
2022-10-22T11:17:14.830Z,13.62
2022-10-22T11:19:54.628Z,13.99
2022-10-22T11:22:29.810Z,14.01
2022-10-22T11:25:17.978Z,14.00
2022-10-22T11:28:06.595Z,13.97
2022-10-22T11:30:38.461Z,14.13
2022-10-22T11:33:12.122Z,14.30
2022-10-22T11:35:43.753Z,14.31
2022-10-22T11:38:16.399Z,14.31
2022-10-22T11:40:58.042Z,14.32
2022-10-22T11:43:31.928Z,14.47
2022-10-22T11:46:22.349Z,14.46
2022-10-22T11:49:15.566Z,14.44
2022-10-22T11:51:46.300Z,14.39
2022-10-22T11:54:42.794Z,14.52
2022-10-22T11:57:20.241Z,14.43
2022-10-22T11:59:47.145Z,14.42
2022-10-22T12:02:41.762Z,14.45
2022-10-22T12:05:40.377Z,14.47
2022-10-22T12:08:21.418Z,14.41
2022-10-22T12:11:16.549Z,14.36
2022-10-22T12:14:02.181Z,14.40
2022-10-22T12:16:57.296Z,14.31
2022-10-22T12:19:29.439Z,14.28
2022-10-22T12:22:26.211Z,14.11
2022-10-22T12:25:01.147Z,14.17
2022-10-22T12:27:42.224Z,14.18
2022-10-22T12:30:27.104Z,14.56
2022-10-22T12:32:56.976Z,14.62
2022-10-22T12:35:33.412Z,14.57
2022-10-22T12:38:08.850Z,14.52
2022-10-22T12:40:36.193Z,14.47
2022-10-22T12:43:12.695Z,14.57
2022-10-22T12:45:40.005Z,14.61
2022-10-22T12:48:34.758Z,14.66
2022-10-22T12:51:04.340Z,14.72
2022-10-22T12:53:35.479Z,14.61
2022-10-22T12:56:18.285Z,14.81
2022-10-22T12:59:05.811Z,14.84
2022-10-22T13:01:39.279Z,14.71
2022-10-22T13:04:37.913Z,14.56
2022-10-22T13:07:12.675Z,14.41
2022-10-22T13:09:46.329Z,14.55
2022-10-22T13:12:17.905Z,14.56
2022-10-22T13:14:46.961Z,14.56
2022-10-22T13:17:17.468Z,14.56
2022-10-22T13:19:49.980Z,14.58
2022-10-22T13:22:35.511Z,14.69
2022-10-22T13:25:19.800Z,14.78
2022-10-22T13:27:51.319Z,14.88
2022-10-22T13:30:28.318Z,14.92
2022-10-22T13:32:59.541Z,14.96
2022-10-22T13:35:29.764Z,14.90
2022-10-22T13:37:56.588Z,14.94
2022-10-22T13:40:23.689Z,14.83
2022-10-22T13:42:51.637Z,14.75
2022-10-22T13:45:19.131Z,14.59
2022-10-22T13:47:52.369Z,14.67
2022-10-22T13:50:21.071Z,14.67
2022-10-22T13:52:54.493Z,14.55
2022-10-22T13:55:30.987Z,14.66
2022-10-22T13:58:24.162Z,14.53
2022-10-22T14:00:57.641Z,14.55
2022-10-22T14:03:32.526Z,14.46
2022-10-22T14:05:59.711Z,14.41
2022-10-22T14:08:28.925Z,14.38
2022-10-22T14:10:56.400Z,14.35
2022-10-22T14:13:23.776Z,14.36
2022-10-22T14:15:52.586Z,14.27
2022-10-22T14:18:25.632Z,14.19
2022-10-22T14:21:07.844Z,14.14
2022-10-22T14:23:36.844Z,14.11
2022-10-22T14:26:05.094Z,14.00
2022-10-22T14:28:40.931Z,13.99
2022-10-22T14:31:13.796Z,13.98
2022-10-22T14:33:41.003Z,13.99
2022-10-22T14:36:13.899Z,13.92
2022-10-22T14:38:42.853Z,13.93
2022-10-22T14:41:21.909Z,13.87
2022-10-22T14:43:49.893Z,13.97
2022-10-22T14:46:17.923Z,14.00
2022-10-22T14:48:45.434Z,13.90
2022-10-22T14:51:20.530Z,14.03
2022-10-22T14:53:48.177Z,13.92
2022-10-22T14:56:18.662Z,13.89
2022-10-22T14:58:45.951Z,13.72
2022-10-22T15:01:13.376Z,13.69
2022-10-22T15:03:40.561Z,13.60
2022-10-22T15:06:07.963Z,13.49
2022-10-22T15:08:54.042Z,13.58
2022-10-22T15:11:22.484Z,13.64
2022-10-22T15:13:49.518Z,13.59
2022-10-22T15:16:16.934Z,13.50
2022-10-22T15:18:44.329Z,13.46
2022-10-22T15:21:20.153Z,13.43
2022-10-22T15:23:49.709Z,13.50
2022-10-22T15:26:17.871Z,13.43
2022-10-22T15:28:46.230Z,13.43
2022-10-22T15:31:15.031Z,13.49
2022-10-22T15:33:43.388Z,13.38
2022-10-22T15:36:13.103Z,13.35
2022-10-22T15:38:40.713Z,13.32
2022-10-22T15:41:12.316Z,13.27
2022-10-22T15:43:39.307Z,13.31
2022-10-22T15:46:18.558Z,13.25
2022-10-22T15:48:47.524Z,13.18
2022-10-22T15:51:17.285Z,13.27
2022-10-22T15:53:44.849Z,13.31
2022-10-22T15:56:12.679Z,13.31
2022-10-22T15:58:39.750Z,13.33
2022-10-22T16:01:12.429Z,13.36
2022-10-22T16:03:40.541Z,13.42
2022-10-22T16:06:09.724Z,13.22
2022-10-22T16:08:37.383Z,13.21
2022-10-22T16:11:05.042Z,13.30
2022-10-22T16:13:32.140Z,13.38
2022-10-22T16:15:59.253Z,13.44
2022-10-22T16:18:27.364Z,13.33
2022-10-22T16:20:54.376Z,13.33
2022-10-22T16:23:21.739Z,13.35
2022-10-22T16:25:49.805Z,13.34
2022-10-22T16:28:17.147Z,13.28
2022-10-22T16:30:44.338Z,13.06
2022-10-22T16:33:12.265Z,13.12
2022-10-22T16:35:42.878Z,13.11
2022-10-22T16:38:11.414Z,13.07
2022-10-22T16:40:38.709Z,13.03
2022-10-22T16:43:06.129Z,13.09
2022-10-22T16:45:33.221Z,13.07
2022-10-22T16:48:00.116Z,13.03
2022-10-22T16:50:27.680Z,13.00
2022-10-22T16:52:54.807Z,13.12
2022-10-22T16:55:21.996Z,13.09
2022-10-22T16:57:54.537Z,13.10
2022-10-22T17:00:22.462Z,13.05
2022-10-22T17:02:54.673Z,13.17
2022-10-22T17:05:22.409Z,13.14
2022-10-22T17:07:50.088Z,13.06
2022-10-22T17:10:20.427Z,12.94
2022-10-22T17:12:48.507Z,12.91
2022-10-22T17:15:16.263Z,12.89
2022-10-22T17:17:48.712Z,12.94
2022-10-22T17:20:16.957Z,12.98
2022-10-22T17:22:44.933Z,12.94
2022-10-22T17:25:15.268Z,12.90
2022-10-22T17:27:44.290Z,12.85
2022-10-22T17:30:17.637Z,12.88
2022-10-22T17:32:46.252Z,12.98
2022-10-22T17:35:15.951Z,12.87
2022-10-22T17:37:43.351Z,12.93
2022-10-22T17:40:12.251Z,12.82
2022-10-22T17:42:40.358Z,12.84
2022-10-22T17:45:08.541Z,12.87
2022-10-22T17:47:37.178Z,12.96
2022-10-22T17:50:04.892Z,12.96
2022-10-22T17:52:32.157Z,12.84
2022-10-22T17:54:59.559Z,12.76
2022-10-22T17:57:26.823Z,12.63
2022-10-22T17:59:53.843Z,12.66
2022-10-22T18:02:22.337Z,12.52
2022-10-22T18:04:54.439Z,12.51
2022-10-22T18:07:22.079Z,12.40
2022-10-22T18:09:49.634Z,12.45
2022-10-22T18:12:18.653Z,12.46
2022-10-22T18:14:47.834Z,12.48
2022-10-22T18:19:50.519Z,12.60
2022-10-22T18:22:17.546Z,12.60
2022-10-22T18:24:45.894Z,12.73
2022-10-22T18:27:14.496Z,12.70
2022-10-22T18:29:42.175Z,12.49
2022-10-22T18:32:13.156Z,12.53
2022-10-22T18:34:41.009Z,12.41
2022-10-22T18:37:08.635Z,12.44
2022-10-22T18:39:36.069Z,12.27
2022-10-22T18:42:06.910Z,12.19
2022-10-22T18:44:35.689Z,12.16
2022-10-22T18:47:03.222Z,12.09
2022-10-22T18:49:31.363Z,12.10
2022-10-22T18:52:01.300Z,12.14
2022-10-22T18:54:30.098Z,12.18
2022-10-22T18:57:03.071Z,12.19
2022-10-22T18:59:30.944Z,12.25
2022-10-22T19:02:01.756Z,12.32
2022-10-22T19:04:37.265Z,12.36
2022-10-22T19:07:06.703Z,12.32
2022-10-22T19:09:35.494Z,12.33
2022-10-22T19:12:02.730Z,12.27
2022-10-22T19:14:29.729Z,12.26
2022-10-22T19:16:58.075Z,12.24
2022-10-22T19:19:25.331Z,12.17
2022-10-22T19:21:52.836Z,12.05
2022-10-22T19:24:21.266Z,12.08
2022-10-22T19:26:49.254Z,12.01
2022-10-22T19:29:24.031Z,11.90
2022-10-22T19:31:51.918Z,11.84
2022-10-22T19:34:21.064Z,11.94
2022-10-22T19:36:53.120Z,12.00
2022-10-22T19:39:20.865Z,12.01
2022-10-22T19:41:48.475Z,11.95
2022-10-22T19:44:17.967Z,11.93
2022-10-22T19:46:47.734Z,12.02
2022-10-22T19:49:18.958Z,12.06
2022-10-22T19:51:52.333Z,11.84
2022-10-22T19:54:21.729Z,11.99
2022-10-22T19:56:50.377Z,12.01
2022-10-22T19:59:21.214Z,12.12
2022-10-22T20:01:49.128Z,12.12
2022-10-22T20:04:17.945Z,12.17
2022-10-22T20:06:47.371Z,12.31
2022-10-22T20:09:14.403Z,12.28
2022-10-22T20:11:42.094Z,12.35
2022-10-22T20:14:10.160Z,12.38
2022-10-22T20:16:37.395Z,12.31
2022-10-22T20:19:07.792Z,12.36
2022-10-22T20:21:35.749Z,12.39
2022-10-22T20:24:02.859Z,12.42
2022-10-22T20:26:31.894Z,12.62
2022-10-22T20:29:00.462Z,12.47
2022-10-22T20:31:31.517Z,12.51
2022-10-22T20:34:02.999Z,12.55
2022-10-22T20:36:31.899Z,12.62
2022-10-22T20:39:07.177Z,12.54
2022-10-22T20:41:38.140Z,12.53
2022-10-22T20:44:05.753Z,12.51
2022-10-22T20:46:34.301Z,12.50
2022-10-22T20:49:27.793Z,12.38
2022-10-22T20:51:55.853Z,12.46
2022-10-22T20:54:23.358Z,12.54
2022-10-22T20:56:51.788Z,12.57
2022-10-22T20:59:19.139Z,12.45
2022-10-22T21:01:52.242Z,12.48
2022-10-22T21:04:21.660Z,12.47
2022-10-22T21:06:50.478Z,12.49
2022-10-22T21:09:21.293Z,12.41
2022-10-22T21:11:49.470Z,12.47
2022-10-22T21:14:20.118Z,12.46
2022-10-22T21:16:51.197Z,12.29
2022-10-22T21:19:20.254Z,12.16
2022-10-22T21:21:48.636Z,12.12
2022-10-22T21:24:15.710Z,12.11
2022-10-22T21:26:44.415Z,12.01
2022-10-22T21:29:13.069Z,12.00
2022-10-22T21:31:40.701Z,11.90
2022-10-22T21:34:07.713Z,11.86
2022-10-22T21:36:35.826Z,11.87
2022-10-22T21:39:04.258Z,11.73
2022-10-22T21:41:31.520Z,11.64
2022-10-22T21:43:58.902Z,11.54
2022-10-22T21:46:28.205Z,11.66
2022-10-22T21:49:03.338Z,11.64
2022-10-22T21:51:33.394Z,11.52
2022-10-22T21:54:00.592Z,11.48
2022-10-22T21:56:33.936Z,11.57
2022-10-22T21:59:02.028Z,11.45
2022-10-22T22:01:29.169Z,11.45
2022-10-22T22:03:56.253Z,11.42
2022-10-22T22:06:28.372Z,11.53
2022-10-22T22:08:58.131Z,11.47
2022-10-22T22:11:26.922Z,11.30
2022-10-22T22:13:57.685Z,11.34
2022-10-22T22:16:28.643Z,11.35
2022-10-22T22:18:58.276Z,11.26
2022-10-22T22:21:25.306Z,11.21
2022-10-22T22:23:52.320Z,11.27
2022-10-22T22:26:25.469Z,11.29
2022-10-22T22:28:58.472Z,11.14
2022-10-22T22:31:29.054Z,11.04
2022-10-22T22:34:11.238Z,11.11
2022-10-22T22:36:40.934Z,11.14
2022-10-22T22:39:10.968Z,11.10
2022-10-22T22:41:37.896Z,11.19
2022-10-22T22:44:05.359Z,11.18
2022-10-22T22:46:33.614Z,11.16
2022-10-22T22:49:00.755Z,11.25
2022-10-22T22:51:27.931Z,11.16
2022-10-22T22:53:57.050Z,11.21
2022-10-22T22:56:26.555Z,11.18
2022-10-22T22:58:53.667Z,11.31
2022-10-22T23:01:26.240Z,11.27
2022-10-22T23:04:00.211Z,11.24
2022-10-22T23:06:29.615Z,11.28
2022-10-22T23:08:58.348Z,11.15
2022-10-22T23:11:26.872Z,11.19
2022-10-22T23:13:56.278Z,11.26
2022-10-22T23:16:25.608Z,11.47
2022-10-22T23:18:55.264Z,11.38
2022-10-22T23:21:28.305Z,11.48
2022-10-22T23:23:59.026Z,11.47
2022-10-22T23:26:33.218Z,11.39
2022-10-22T23:29:21.989Z,11.21
2022-10-22T23:31:50.182Z,11.41
2022-10-22T23:34:20.388Z,11.41
2022-10-22T23:36:47.687Z,11.44
2022-10-22T23:39:17.677Z,11.36
2022-10-22T23:41:44.838Z,11.34
2022-10-22T23:44:12.818Z,11.14
2022-10-22T23:46:40.043Z,11.17
2022-10-22T23:49:09.260Z,11.15
2022-10-22T23:51:36.660Z,11.26
2022-10-22T23:54:07.018Z,11.20
2022-10-22T23:56:36.434Z,11.30
2022-10-22T23:59:04.528Z,11.06
